createdAt,value
2022-11-05T00:02:01.356Z,9.41
2022-11-05T00:04:47.833Z,9.43
2022-11-05T00:08:04.901Z,9.43
2022-11-05T00:10:40.473Z,9.40
2022-11-05T00:13:28.298Z,9.42
2022-11-05T00:16:13.961Z,9.41
2022-11-05T00:18:40.393Z,9.41
2022-11-05T00:21:26.750Z,9.42
2022-11-05T00:24:11.882Z,9.42
2022-11-05T00:26:38.270Z,9.43
2022-11-05T00:29:04.642Z,9.43
2022-11-05T00:31:32.198Z,9.43
2022-11-05T00:33:58.598Z,9.42
2022-11-05T00:36:24.937Z,9.44
2022-11-05T00:38:51.427Z,9.45
2022-11-05T00:41:17.767Z,9.46
2022-11-05T00:44:02.985Z,9.47
2022-11-05T00:46:29.326Z,9.47
2022-11-05T00:49:14.037Z,9.45
2022-11-05T00:51:40.374Z,9.47
2022-11-05T00:54:06.901Z,9.47
2022-11-05T00:56:33.275Z,9.45
2022-11-05T00:58:59.712Z,9.45
2022-11-05T01:01:26.180Z,9.44
2022-11-05T01:03:52.665Z,9.45
2022-11-05T01:06:19.025Z,9.44
2022-11-05T01:08:46.770Z,9.46
2022-11-05T01:11:35.066Z,9.46
2022-11-05T01:14:13.291Z,9.46
2022-11-05T01:16:40.543Z,9.47
2022-11-05T01:19:09.812Z,9.49
2022-11-05T01:21:36.776Z,9.48
2022-11-05T01:24:04.005Z,9.48
2022-11-05T01:26:30.677Z,9.47
2022-11-05T01:29:00.378Z,9.46
2022-11-05T01:31:28.493Z,9.46
2022-11-05T01:33:55.279Z,9.46
2022-11-05T01:36:21.730Z,9.47
2022-11-05T01:38:48.199Z,9.46
2022-11-05T01:41:14.579Z,9.47
2022-11-05T01:43:50.024Z,9.47
2022-11-05T01:46:23.668Z,9.47
2022-11-05T01:48:56.166Z,9.46
2022-11-05T01:51:27.974Z,9.44
2022-11-05T01:54:01.485Z,9.43
2022-11-05T01:56:40.468Z,9.43
2022-11-05T01:59:11.598Z,9.43
2022-11-05T02:01:38.169Z,9.41
2022-11-05T02:04:10.380Z,9.40
2022-11-05T02:06:46.194Z,9.41
2022-11-05T02:09:19.978Z,9.40
2022-11-05T02:11:48.165Z,9.39
2022-11-05T02:14:21.296Z,9.40
2022-11-05T02:17:09.228Z,9.40
2022-11-05T02:19:44.358Z,9.42
2022-11-05T02:22:20.778Z,9.42
2022-11-05T02:25:24.838Z,9.42
2022-11-05T02:28:47.034Z,9.41
2022-11-05T02:31:32.711Z,9.39
2022-11-05T02:34:15.762Z,9.40
2022-11-05T02:37:12.325Z,9.39
2022-11-05T02:40:33.509Z,9.40
2022-11-05T02:43:19.475Z,9.42
2022-11-05T02:46:39.865Z,9.42
2022-11-05T02:49:28.412Z,9.43
2022-11-05T02:52:07.354Z,9.42
2022-11-05T02:55:14.104Z,9.41
2022-11-05T02:57:48.313Z,9.40
2022-11-05T03:00:51.259Z,9.38
2022-11-05T03:03:39.900Z,9.38
2022-11-05T03:06:41.074Z,9.37
2022-11-05T03:09:26.078Z,9.37
2022-11-05T03:11:58.521Z,9.37
2022-11-05T03:14:39.068Z,9.37
2022-11-05T03:17:30.976Z,9.38
2022-11-05T03:20:19.076Z,9.37
2022-11-05T03:23:26.393Z,9.38
2022-11-05T03:26:06.113Z,9.38
2022-11-05T03:28:35.683Z,9.38
2022-11-05T03:31:04.454Z,9.38
2022-11-05T03:33:33.438Z,9.36
2022-11-05T03:36:05.650Z,9.36
2022-11-05T03:38:36.854Z,9.33
2022-11-05T03:41:14.237Z,9.31
2022-11-05T03:43:45.108Z,9.29
2022-11-05T03:46:34.992Z,9.29
2022-11-05T03:49:04.402Z,9.28
2022-11-05T03:51:54.038Z,9.31
2022-11-05T03:54:20.815Z,9.30
2022-11-05T03:57:00.958Z,9.33
2022-11-05T03:59:29.134Z,9.32
2022-11-05T04:01:56.796Z,9.33
2022-11-05T04:04:23.484Z,9.34
2022-11-05T04:07:08.516Z,9.31
2022-11-05T04:09:53.387Z,9.31
2022-11-05T04:12:38.896Z,9.30
2022-11-05T04:15:15.529Z,9.28
2022-11-05T04:17:42.498Z,9.24
2022-11-05T04:20:29.242Z,9.22
2022-11-05T04:23:23.304Z,9.22
2022-11-05T04:25:54.190Z,9.19
2022-11-05T04:28:24.052Z,9.19
2022-11-05T04:30:50.883Z,9.18
2022-11-05T04:33:18.099Z,9.19
2022-11-05T04:35:49.143Z,9.18
2022-11-05T04:38:20.430Z,9.17
2022-11-05T04:40:48.350Z,9.15
2022-11-05T04:43:18.897Z,9.16
2022-11-05T04:46:11.272Z,9.16
2022-11-05T04:48:43.658Z,9.16
2022-11-05T04:51:15.610Z,9.15
2022-11-05T04:53:51.939Z,9.16
2022-11-05T04:56:24.522Z,9.17
2022-11-05T04:58:51.833Z,9.18
2022-11-05T05:01:21.446Z,9.16
2022-11-05T05:03:52.527Z,9.14
2022-11-05T05:06:19.606Z,9.14
2022-11-05T05:08:50.576Z,9.14
2022-11-05T05:11:19.834Z,9.15
2022-11-05T05:13:46.830Z,9.15
2022-11-05T05:16:31.033Z,9.14
2022-11-05T05:18:57.582Z,9.13
2022-11-05T05:21:38.874Z,9.12
2022-11-05T05:24:08.634Z,9.09
2022-11-05T05:26:36.806Z,9.10
2022-11-05T05:29:04.101Z,9.08
2022-11-05T05:31:30.519Z,9.07
2022-11-05T05:33:57.172Z,9.08
2022-11-05T05:36:23.986Z,9.09
2022-11-05T05:38:50.738Z,9.09
2022-11-05T05:41:17.716Z,9.07
2022-11-05T05:43:44.142Z,9.04
2022-11-05T05:46:12.616Z,9.05
2022-11-05T05:48:39.511Z,9.04
2022-11-05T05:51:08.617Z,9.04
2022-11-05T05:53:35.380Z,9.03
2022-11-05T05:56:01.811Z,9.03
2022-11-05T05:58:33.175Z,9.03
2022-11-05T06:01:09.597Z,9.03
2022-11-05T06:03:37.373Z,9.04
2022-11-05T06:06:05.886Z,9.03
2022-11-05T06:08:32.704Z,9.01
2022-11-05T06:11:00.124Z,9.00
2022-11-05T06:13:27.217Z,9.00
2022-11-05T06:15:53.942Z,8.99
2022-11-05T06:18:20.311Z,8.99
2022-11-05T06:20:46.744Z,8.99
2022-11-05T06:23:13.558Z,8.99
2022-11-05T06:25:41.366Z,8.97
2022-11-05T06:28:08.042Z,8.98
2022-11-05T06:30:34.457Z,9.00
2022-11-05T06:33:04.920Z,8.99
2022-11-05T06:35:32.149Z,9.00
2022-11-05T06:38:01.779Z,8.98
2022-11-05T06:40:29.493Z,8.98
2022-11-05T06:42:55.899Z,8.97
2022-11-05T06:45:22.567Z,8.99
2022-11-05T06:47:55.905Z,8.99
2022-11-05T06:50:22.697Z,9.00
2022-11-05T06:53:02.866Z,9.00
2022-11-05T06:55:31.254Z,9.00
2022-11-05T06:57:57.940Z,9.00
2022-11-05T07:00:24.680Z,9.01
2022-11-05T07:02:51.044Z,9.01
2022-11-05T07:05:17.720Z,9.01
2022-11-05T07:07:45.611Z,9.00
2022-11-05T07:10:15.141Z,8.99
2022-11-05T07:12:41.913Z,9.02
2022-11-05T07:15:09.347Z,9.08
2022-11-05T07:17:36.226Z,9.13
2022-11-05T07:20:03.773Z,9.13
2022-11-05T07:22:30.148Z,9.12
2022-11-05T07:24:56.510Z,9.14
2022-11-05T07:27:22.925Z,9.21
2022-11-05T07:29:49.431Z,9.25
2022-11-05T07:32:15.802Z,9.28
2022-11-05T07:34:42.555Z,9.33
2022-11-05T07:37:08.995Z,9.37
2022-11-05T07:39:35.453Z,9.36
2022-11-05T07:42:01.846Z,9.34
2022-11-05T07:44:28.510Z,9.30
2022-11-05T07:46:54.847Z,9.30
2022-11-05T07:49:21.221Z,9.30
2022-11-05T07:51:47.554Z,9.28
2022-11-05T07:54:13.895Z,9.28
2022-11-05T07:56:40.269Z,9.28
2022-11-05T07:59:06.752Z,9.27
2022-11-05T08:01:33.309Z,9.27
2022-11-05T08:03:59.813Z,9.31
2022-11-05T08:06:26.210Z,9.29
2022-11-05T08:08:52.629Z,9.25
2022-11-05T08:11:19.029Z,9.20
2022-11-05T08:13:45.727Z,9.17
2022-11-05T08:16:12.166Z,9.12
2022-11-05T08:18:38.530Z,9.11
2022-11-05T08:21:05.757Z,9.10
2022-11-05T08:23:32.893Z,9.08
2022-11-05T08:25:59.288Z,9.03
2022-11-05T08:28:26.339Z,8.98
2022-11-05T08:30:55.360Z,8.94
2022-11-05T08:33:23.358Z,8.86
2022-11-05T08:35:50.297Z,8.79
2022-11-05T08:38:18.830Z,8.77
2022-11-05T08:40:53.316Z,8.69
2022-11-05T08:43:19.701Z,8.63
2022-11-05T08:45:46.137Z,8.62
2022-11-05T08:48:15.343Z,8.59
2022-11-05T08:50:42.774Z,8.59
2022-11-05T08:53:10.464Z,8.59
2022-11-05T08:55:38.412Z,8.61
2022-11-05T08:58:07.553Z,8.60
2022-11-05T09:00:36.741Z,8.60
2022-11-05T09:03:06.810Z,8.58
2022-11-05T09:05:38.205Z,8.57
2022-11-05T09:08:06.712Z,8.55
2022-11-05T09:10:33.602Z,8.56
2022-11-05T09:12:59.975Z,8.57
2022-11-05T09:15:26.670Z,8.57
2022-11-05T09:17:53.076Z,8.59
2022-11-05T09:20:19.572Z,8.59
2022-11-05T09:22:46.692Z,8.57
2022-11-05T09:25:13.165Z,8.56
2022-11-05T09:27:39.537Z,8.59
2022-11-05T09:30:06.505Z,8.59
2022-11-05T09:32:33.114Z,8.57
2022-11-05T09:35:02.391Z,8.60
2022-11-05T09:37:29.414Z,8.64
2022-11-05T09:39:56.194Z,8.63
2022-11-05T09:42:26.228Z,8.68
2022-11-05T09:44:59.285Z,8.69
2022-11-05T09:48:01.376Z,8.72
2022-11-05T09:50:39.110Z,8.74
2022-11-05T09:53:06.362Z,8.76
2022-11-05T09:55:37.393Z,8.79
2022-11-05T09:58:14.457Z,8.81
2022-11-05T10:00:41.790Z,8.88
2022-11-05T10:03:14.084Z,9.01
2022-11-05T10:05:41.425Z,9.08
2022-11-05T10:08:18.119Z,9.05
2022-11-05T10:11:05.051Z,9.00
2022-11-05T10:13:47.094Z,8.97
2022-11-05T10:16:22.521Z,8.97
2022-11-05T10:18:55.172Z,8.96
2022-11-05T10:21:44.141Z,8.93
2022-11-05T10:24:15.033Z,8.95
2022-11-05T10:26:42.010Z,8.99
2022-11-05T10:29:13.082Z,8.99
2022-11-05T10:31:39.835Z,8.96
2022-11-05T10:34:08.333Z,8.94
2022-11-05T10:36:37.016Z,8.95
2022-11-05T10:39:23.307Z,9.02
2022-11-05T10:42:08.357Z,9.14
2022-11-05T10:44:48.425Z,9.29
2022-11-05T10:47:54.304Z,9.48
2022-11-05T10:50:25.241Z,9.62
2022-11-05T10:52:51.580Z,9.67
2022-11-05T10:55:24.884Z,9.60
2022-11-05T10:57:51.899Z,9.49
2022-11-05T11:00:25.914Z,9.47
2022-11-05T11:02:56.370Z,9.45
2022-11-05T11:05:38.625Z,9.46
2022-11-05T11:08:11.265Z,9.39
2022-11-05T11:10:48.773Z,9.36
2022-11-05T11:13:26.930Z,9.37
2022-11-05T11:15:54.986Z,9.40
2022-11-05T11:18:40.080Z,9.40
2022-11-05T11:21:14.113Z,9.40
2022-11-05T11:23:42.132Z,9.39
2022-11-05T11:26:11.393Z,9.35
2022-11-05T11:28:47.139Z,9.34
2022-11-05T11:31:22.003Z,9.39
2022-11-05T11:34:03.302Z,9.39
2022-11-05T11:36:45.852Z,9.37
2022-11-05T11:39:23.775Z,9.32
2022-11-05T11:42:01.922Z,9.36
2022-11-05T11:44:47.733Z,9.41
2022-11-05T11:47:23.567Z,9.54
2022-11-05T11:50:16.510Z,9.63
2022-11-05T11:52:46.882Z,9.65
2022-11-05T11:55:19.277Z,9.64
2022-11-05T11:58:02.863Z,9.62
2022-11-05T12:00:53.736Z,9.64
2022-11-05T12:03:44.924Z,9.66
2022-11-05T12:06:39.320Z,9.72
2022-11-05T12:09:41.518Z,9.84
2022-11-05T12:12:17.961Z,10.02
2022-11-05T12:15:06.754Z,10.32
2022-11-05T12:17:49.272Z,10.30
2022-11-05T12:20:44.775Z,10.35
2022-11-05T12:23:55.054Z,10.43
2022-11-05T12:26:49.866Z,10.51
2022-11-05T12:29:59.047Z,10.57
2022-11-05T12:32:49.525Z,10.64
2022-11-05T12:35:47.037Z,10.64
2022-11-05T12:38:38.298Z,10.67
2022-11-05T12:41:26.666Z,10.62
2022-11-05T12:44:06.067Z,10.58
2022-11-05T12:46:49.605Z,10.58
2022-11-05T12:49:36.730Z,10.59
2022-11-05T12:52:17.367Z,10.60
2022-11-05T12:55:04.282Z,10.55
2022-11-05T12:57:35.793Z,10.50
2022-11-05T13:00:08.530Z,10.43
2022-11-05T13:02:45.081Z,10.40
2022-11-05T13:05:38.658Z,10.40
2022-11-05T13:08:08.502Z,10.40
2022-11-05T13:10:45.840Z,10.40
2022-11-05T13:13:18.485Z,10.39
2022-11-05T13:15:53.746Z,10.37
2022-11-05T13:18:27.513Z,10.34
2022-11-05T13:20:56.337Z,10.29
2022-11-05T13:23:42.052Z,10.24
2022-11-05T13:26:19.820Z,10.20
2022-11-05T13:28:54.003Z,10.17
2022-11-05T13:31:28.418Z,10.17
2022-11-05T13:33:56.352Z,10.16
2022-11-05T13:36:49.485Z,10.16
2022-11-05T13:39:41.468Z,10.14
2022-11-05T13:42:39.601Z,10.12
2022-11-05T13:45:17.965Z,10.11
2022-11-05T13:48:18.495Z,10.10
2022-11-05T13:51:00.269Z,10.08
2022-11-05T13:53:54.347Z,10.07
2022-11-05T13:56:51.892Z,10.08
2022-11-05T13:59:37.208Z,10.06
2022-11-05T14:02:13.703Z,10.05
2022-11-05T14:05:01.837Z,10.04
2022-11-05T14:07:38.197Z,10.02
2022-11-05T14:10:28.955Z,10.00
2022-11-05T14:12:58.725Z,9.99
2022-11-05T14:15:28.394Z,9.98
2022-11-05T14:18:05.619Z,9.97
2022-11-05T14:20:31.906Z,9.95
2022-11-05T14:23:17.354Z,9.93
2022-11-05T14:25:43.734Z,9.92
2022-11-05T14:28:29.002Z,9.90
2022-11-05T14:30:55.404Z,9.89
2022-11-05T14:33:24.908Z,9.85
2022-11-05T14:35:52.960Z,9.82
2022-11-05T14:38:25.489Z,9.80
2022-11-05T14:41:00.685Z,9.79
2022-11-05T14:43:29.213Z,9.75
2022-11-05T14:46:00.738Z,9.75
2022-11-05T14:48:46.261Z,9.72
2022-11-05T14:51:30.995Z,9.71
2022-11-05T14:54:06.509Z,9.69
2022-11-05T14:56:55.854Z,9.69
2022-11-05T14:59:28.037Z,9.67
2022-11-05T15:01:57.610Z,9.65
2022-11-05T15:04:31.462Z,9.64
2022-11-05T15:07:04.187Z,9.66
2022-11-05T15:09:40.352Z,9.64
2022-11-05T15:12:09.923Z,9.64
2022-11-05T15:14:42.239Z,9.63
2022-11-05T15:17:30.261Z,9.62
2022-11-05T15:20:15.385Z,9.60
2022-11-05T15:22:45.198Z,9.62
2022-11-05T15:25:22.909Z,9.59
2022-11-05T15:27:52.445Z,9.61
2022-11-05T15:30:22.012Z,9.60
2022-11-05T15:32:48.471Z,9.60
2022-11-05T15:35:27.238Z,9.59
2022-11-05T15:38:01.830Z,9.58
2022-11-05T15:40:31.951Z,9.58
2022-11-05T15:43:10.513Z,9.56
2022-11-05T15:45:37.209Z,9.56
2022-11-05T15:48:13.249Z,9.53
2022-11-05T15:50:40.098Z,9.53
2022-11-05T15:53:47.451Z,9.51
2022-11-05T15:56:36.325Z,9.49
2022-11-05T15:59:19.644Z,9.48
2022-11-05T16:01:49.848Z,9.47
2022-11-05T16:04:22.424Z,9.44
2022-11-05T16:06:59.218Z,9.44
2022-11-05T16:09:28.559Z,9.42
2022-11-05T16:12:20.067Z,9.41
2022-11-05T16:15:08.396Z,9.39
2022-11-05T16:17:37.732Z,9.38
2022-11-05T16:20:32.120Z,9.36
2022-11-05T16:23:07.930Z,9.36
2022-11-05T16:25:42.949Z,9.35
2022-11-05T16:28:24.847Z,9.33
2022-11-05T16:30:53.739Z,9.33
2022-11-05T16:33:20.289Z,9.30
2022-11-05T16:35:49.331Z,9.30
2022-11-05T16:38:17.057Z,9.27
2022-11-05T16:40:44.254Z,9.27
2022-11-05T16:43:24.441Z,9.25
2022-11-05T16:45:57.070Z,9.24
2022-11-05T16:48:24.107Z,9.23
2022-11-05T16:50:50.483Z,9.21
2022-11-05T16:53:17.586Z,9.17
2022-11-05T16:55:45.410Z,9.15
2022-11-05T16:58:23.686Z,9.09
2022-11-05T17:00:52.391Z,9.00
2022-11-05T17:03:20.249Z,8.95
2022-11-05T17:05:46.921Z,8.88
2022-11-05T17:08:13.722Z,8.84
2022-11-05T17:10:40.618Z,8.84
2022-11-05T17:13:07.104Z,8.79
2022-11-05T17:15:37.178Z,8.76
2022-11-05T17:18:04.998Z,8.72
2022-11-05T17:20:39.979Z,8.69
2022-11-05T17:23:09.261Z,8.65
2022-11-05T17:25:36.107Z,8.61
2022-11-05T17:28:03.302Z,8.57
2022-11-05T17:30:30.164Z,8.55
2022-11-05T17:32:56.690Z,8.54
2022-11-05T17:35:23.429Z,8.51
2022-11-05T17:37:50.353Z,8.47
2022-11-05T17:40:18.879Z,8.43
2022-11-05T17:42:46.249Z,8.38
2022-11-05T17:45:13.222Z,8.31
2022-11-05T17:47:40.697Z,8.28
2022-11-05T17:50:09.712Z,8.21
2022-11-05T17:52:36.493Z,8.15
2022-11-05T17:55:05.295Z,8.14
2022-11-05T17:57:31.836Z,8.06
2022-11-05T17:59:58.297Z,7.98
2022-11-05T18:02:24.927Z,7.93
2022-11-05T18:04:51.539Z,7.88
2022-11-05T18:07:18.079Z,7.86
2022-11-05T18:09:44.562Z,7.83
2022-11-05T18:12:10.931Z,7.79
2022-11-05T18:14:37.498Z,7.76
2022-11-05T18:17:03.947Z,7.77
2022-11-05T18:19:30.455Z,7.70
2022-11-05T18:21:56.951Z,7.67
2022-11-05T18:24:23.527Z,7.64
2022-11-05T18:26:50.414Z,7.61
2022-11-05T18:29:16.960Z,7.59
2022-11-05T18:31:43.366Z,7.53
2022-11-05T18:34:10.374Z,7.51
2022-11-05T18:36:36.871Z,7.48
2022-11-05T18:39:05.296Z,7.45
2022-11-05T18:41:31.857Z,7.45
2022-11-05T18:43:59.877Z,7.38
2022-11-05T18:46:56.030Z,7.37
2022-11-05T18:49:13.652Z,7.33
2022-11-05T18:51:40.781Z,7.30
2022-11-05T18:54:08.531Z,7.25
2022-11-05T18:56:35.676Z,7.23
2022-11-05T18:59:30.022Z,7.21
2022-11-05T19:01:49.137Z,7.19
2022-11-05T19:04:15.756Z,7.15
2022-11-05T19:06:42.646Z,7.12
2022-11-05T19:09:11.911Z,7.12
2022-11-05T19:11:39.730Z,7.13
2022-11-05T19:14:07.212Z,7.09
2022-11-05T19:16:34.063Z,7.03
2022-11-05T19:19:02.501Z,7.01
2022-11-05T19:21:29.557Z,7.00
2022-11-05T19:24:00.139Z,7.00
2022-11-05T19:26:29.436Z,6.96
2022-11-05T19:28:58.774Z,6.96
2022-11-05T19:31:26.457Z,6.93
2022-11-05T19:33:54.012Z,6.95
2022-11-05T19:36:22.301Z,6.92
2022-11-05T19:39:00.953Z,6.89
2022-11-05T19:41:28.486Z,6.87
2022-11-05T19:43:58.057Z,6.83
2022-11-05T19:46:29.096Z,6.80
2022-11-05T19:48:55.715Z,6.84
2022-11-05T19:51:25.033Z,6.81
2022-11-05T19:53:52.901Z,6.81
2022-11-05T19:56:22.683Z,6.78
2022-11-05T19:58:49.348Z,6.81
2022-11-05T20:01:17.315Z,6.81
2022-11-05T20:03:47.443Z,6.75
2022-11-05T20:06:18.067Z,6.74
2022-11-05T20:09:14.854Z,6.75
2022-11-05T20:11:32.005Z,6.71
2022-11-05T20:14:01.703Z,6.73
2022-11-05T20:16:34.639Z,6.71
2022-11-05T20:19:01.442Z,6.76
2022-11-05T20:21:27.986Z,6.75
2022-11-05T20:23:56.796Z,6.71
2022-11-05T20:26:26.588Z,6.71
2022-11-05T20:28:53.696Z,6.72
2022-11-05T20:31:20.243Z,6.72
2022-11-05T20:33:46.910Z,6.64
2022-11-05T20:36:20.196Z,6.64
2022-11-05T20:38:52.175Z,6.66
2022-11-05T20:41:19.149Z,6.69
2022-11-05T20:43:46.789Z,6.69
2022-11-05T20:46:15.343Z,6.67
2022-11-05T20:48:42.500Z,6.62
2022-11-05T20:51:14.666Z,6.62
2022-11-05T20:53:41.761Z,6.64
2022-11-05T20:56:09.480Z,6.61
2022-11-05T20:58:37.564Z,6.59
2022-11-05T21:01:05.539Z,6.55
2022-11-05T21:03:32.206Z,6.58
2022-11-05T21:06:00.103Z,6.58
2022-11-05T21:08:28.582Z,6.59
2022-11-05T21:10:55.994Z,6.57
2022-11-05T21:13:23.138Z,6.58
2022-11-05T21:15:51.904Z,6.56
2022-11-05T21:18:27.323Z,6.52
2022-11-05T21:20:54.260Z,6.52
2022-11-05T21:23:21.471Z,6.51
2022-11-05T21:25:48.275Z,6.47
2022-11-05T21:28:18.721Z,6.39
2022-11-05T21:30:46.453Z,6.36
2022-11-05T21:33:14.523Z,6.30
2022-11-05T21:35:44.010Z,6.30
2022-11-05T21:38:11.829Z,6.28
2022-11-05T21:40:38.845Z,6.24
2022-11-05T21:43:05.491Z,6.25
2022-11-05T21:45:32.561Z,6.26
2022-11-05T21:47:59.282Z,6.24
2022-11-05T21:50:44.488Z,6.22
2022-11-05T21:53:40.706Z,6.24
2022-11-05T21:56:34.875Z,6.26
2022-11-05T21:59:19.931Z,6.22
2022-11-05T22:01:47.693Z,6.19
2022-11-05T22:04:14.197Z,6.17
2022-11-05T22:06:40.638Z,6.17
2022-11-05T22:09:07.064Z,6.16
2022-11-05T22:11:37.283Z,6.12
2022-11-05T22:14:04.202Z,6.10
2022-11-05T22:16:30.727Z,6.10
2022-11-05T22:18:57.695Z,6.09
2022-11-05T22:21:24.219Z,6.10
2022-11-05T22:23:52.019Z,6.09
2022-11-05T22:26:18.787Z,6.07
2022-11-05T22:28:45.286Z,6.02
2022-11-05T22:31:18.106Z,5.97
2022-11-05T22:33:44.639Z,5.98
2022-11-05T22:36:11.416Z,5.96
2022-11-05T22:38:38.338Z,5.91
2022-11-05T22:41:10.290Z,5.90
2022-11-05T22:43:37.381Z,5.88
2022-11-05T22:46:09.618Z,5.87
2022-11-05T22:48:36.960Z,5.85
2022-11-05T22:51:05.348Z,5.84
2022-11-05T22:53:33.691Z,5.83
2022-11-05T22:56:03.498Z,5.83
2022-11-05T22:58:29.891Z,5.81
2022-11-05T23:00:56.288Z,5.79
2022-11-05T23:03:25.107Z,5.75
2022-11-05T23:06:02.434Z,5.73
2022-11-05T23:08:47.882Z,5.73
2022-11-05T23:11:41.221Z,5.75
2022-11-05T23:14:10.858Z,5.74
2022-11-05T23:16:55.788Z,5.74
2022-11-05T23:19:41.600Z,5.75
2022-11-05T23:22:40.966Z,5.74
2022-11-05T23:25:09.909Z,5.74
2022-11-05T23:27:37.847Z,5.73
2022-11-05T23:30:11.682Z,5.69
2022-11-05T23:32:38.292Z,5.67
2022-11-05T23:35:05.571Z,5.64
2022-11-05T23:37:51.200Z,5.66
2022-11-05T23:40:21.616Z,5.64
2022-11-05T23:43:07.148Z,5.61
2022-11-05T23:45:52.426Z,5.61
2022-11-05T23:48:31.079Z,5.63
2022-11-05T23:50:59.643Z,5.64
2022-11-05T23:53:27.140Z,5.65
2022-11-05T23:55:53.550Z,5.64
2022-11-05T23:58:19.930Z,5.60
